sensor_id;sensor_type;location;lat;lon;timestamp;pressure;altitude;pressure_sealevel;temperature;humidity
50011;BME280;35899;50.352;19.390;2022-11-11T00:00:37;99134.17;;;3.08;95.69
50011;BME280;35899;50.352;19.390;2022-11-11T00:03:22;99141.05;;;3.06;95.83
50011;BME280;35899;50.352;19.390;2022-11-11T00:06:13;99147.47;;;3.06;95.71
50011;BME280;35899;50.352;19.390;2022-11-11T00:08:59;99151.31;;;3.06;95.70
50011;BME280;35899;50.352;19.390;2022-11-11T00:11:44;99153.46;;;3.07;96.07
50011;BME280;35899;50.352;19.390;2022-11-11T00:14:29;99155.97;;;3.08;95.97
50011;BME280;35899;50.352;19.390;2022-11-11T00:17:14;99149.34;;;2.98;95.15
50011;BME280;35899;50.352;19.390;2022-11-11T00:19:59;99161.78;;;2.97;95.51
50011;BME280;35899;50.352;19.390;2022-11-11T00:22:44;99157.02;;;3.00;95.94
50011;BME280;35899;50.352;19.390;2022-11-11T00:25:28;99157.85;;;3.00;96.01
50011;BME280;35899;50.352;19.390;2022-11-11T00:28:16;99167.25;;;3.01;95.95
50011;BME280;35899;50.352;19.390;2022-11-11T00:31:08;99176.30;;;2.97;95.39
50011;BME280;35899;50.352;19.390;2022-11-11T00:33:52;99173.73;;;2.97;95.72
50011;BME280;35899;50.352;19.390;2022-11-11T00:36:37;99178.40;;;2.99;95.85
50011;BME280;35899;50.352;19.390;2022-11-11T00:39:22;99178.84;;;2.98;95.89
50011;BME280;35899;50.352;19.390;2022-11-11T00:42:07;99176.64;;;3.01;96.24
50011;BME280;35899;50.352;19.390;2022-11-11T00:44:52;99172.75;;;3.04;96.34
50011;BME280;35899;50.352;19.390;2022-11-11T00:47:38;99173.54;;;3.07;96.60
50011;BME280;35899;50.352;19.390;2022-11-11T00:50:26;99163.28;;;3.07;96.56
50011;BME280;35899;50.352;19.390;2022-11-11T00:53:17;99170.97;;;3.07;96.11
50011;BME280;35899;50.352;19.390;2022-11-11T00:56:01;99167.25;;;3.01;95.70
50011;BME280;35899;50.352;19.390;2022-11-11T00:58:46;99169.84;;;3.00;95.69
50011;BME280;35899;50.352;19.390;2022-11-11T01:01:36;99171.59;;;2.98;95.67
50011;BME280;35899;50.352;19.390;2022-11-11T01:04:22;99169.01;;;2.99;95.92
50011;BME280;35899;50.352;19.390;2022-11-11T01:07:07;99172.75;;;3.04;96.28
50011;BME280;35899;50.352;19.390;2022-11-11T01:09:52;99163.67;;;3.08;96.54
50011;BME280;35899;50.352;19.390;2022-11-11T01:12:36;99157.16;;;3.15;96.50
50011;BME280;35899;50.352;19.390;2022-11-11T01:15:21;99157.97;;;3.17;96.46
50011;BME280;35899;50.352;19.390;2022-11-11T01:18:06;99156.59;;;3.20;96.57
50011;BME280;35899;50.352;19.390;2022-11-11T01:21:02;99151.84;;;3.24;96.55
50011;BME280;35899;50.352;19.390;2022-11-11T01:23:49;99146.59;;;3.28;96.63
50011;BME280;35899;50.352;19.390;2022-11-11T01:26:34;99151.23;;;3.32;96.60
50011;BME280;35899;50.352;19.390;2022-11-11T01:29:19;99150.70;;;3.37;96.83
50011;BME280;35899;50.352;19.390;2022-11-11T01:32:04;99152.34;;;3.40;96.42
50011;BME280;35899;50.352;19.390;2022-11-11T01:34:49;99145.91;;;3.41;96.39
50011;BME280;35899;50.352;19.390;2022-11-11T01:37:34;99142.86;;;3.43;96.55
50011;BME280;35899;50.352;19.390;2022-11-11T01:40:19;99151.73;;;3.48;96.79
50011;BME280;35899;50.352;19.390;2022-11-11T01:45:59;99164.48;;;3.52;96.32
50011;BME280;35899;50.352;19.390;2022-11-11T01:48:52;99157.59;;;3.55;96.26
50011;BME280;35899;50.352;19.390;2022-11-11T01:51:40;99152.43;;;3.56;96.23
50011;BME280;35899;50.352;19.390;2022-11-11T01:57:56;99160.47;;;3.60;96.59
50011;BME280;35899;50.352;19.390;2022-11-11T02:00:44;99158.68;;;3.64;96.76
50011;BME280;35899;50.352;19.390;2022-11-11T02:03:31;99153.45;;;3.67;96.71
50011;BME280;35899;50.352;19.390;2022-11-11T02:06:19;99155.66;;;3.64;96.55
50011;BME280;35899;50.352;19.390;2022-11-11T02:09:05;99151.34;;;3.66;96.87
50011;BME280;35899;50.352;19.390;2022-11-11T02:11:53;99154.66;;;3.71;97.18
50011;BME280;35899;50.352;19.390;2022-11-11T02:14:44;99158.39;;;3.76;97.24
50011;BME280;35899;50.352;19.390;2022-11-11T02:17:31;99159.17;;;3.80;97.08
50011;BME280;35899;50.352;19.390;2022-11-11T02:20:19;99162.57;;;3.80;97.06
50011;BME280;35899;50.352;19.390;2022-11-11T02:23:24;99163.34;;;3.84;97.22
50011;BME280;35899;50.352;19.390;2022-11-11T02:26:13;99167.17;;;3.85;97.12
50011;BME280;35899;50.352;19.390;2022-11-11T02:29:00;99172.64;;;3.89;97.32
50011;BME280;35899;50.352;19.390;2022-11-11T02:31:46;99176.81;;;3.94;97.36
50011;BME280;35899;50.352;19.390;2022-11-11T02:34:32;99177.59;;;3.97;97.43
50011;BME280;35899;50.352;19.390;2022-11-11T02:37:25;99180.52;;;4.00;97.21
50011;BME280;35899;50.352;19.390;2022-11-11T02:40:17;99174.04;;;4.03;97.52
50011;BME280;35899;50.352;19.390;2022-11-11T02:42:59;99166.69;;;4.05;97.58
50011;BME280;35899;50.352;19.390;2022-11-11T02:45:44;99172.25;;;4.06;97.43
50011;BME280;35899;50.352;19.390;2022-11-11T02:48:30;99173.08;;;4.07;97.62
50011;BME280;35899;50.352;19.390;2022-11-11T02:51:15;99178.16;;;4.10;97.78
50011;BME280;35899;50.352;19.390;2022-11-11T02:54:00;99180.64;;;4.13;97.97
50011;BME280;35899;50.352;19.390;2022-11-11T02:56:45;99177.62;;;4.15;98.00
50011;BME280;35899;50.352;19.390;2022-11-11T02:59:29;99175.41;;;4.18;98.13
50011;BME280;35899;50.352;19.390;2022-11-11T03:02:14;99181.34;;;4.20;98.08
50011;BME280;35899;50.352;19.390;2022-11-11T03:04:59;99173.61;;;4.21;98.13
50011;BME280;35899;50.352;19.390;2022-11-11T03:07:44;99177.46;;;4.21;97.99
50011;BME280;35899;50.352;19.390;2022-11-11T03:10:29;99180.84;;;4.23;98.04
50011;BME280;35899;50.352;19.390;2022-11-11T03:13:14;99173.96;;;4.24;98.14
50011;BME280;35899;50.352;19.390;2022-11-11T03:15:58;99173.52;;;4.24;98.14
50011;BME280;35899;50.352;19.390;2022-11-11T03:18:43;99179.04;;;4.27;98.17
50011;BME280;35899;50.352;19.390;2022-11-11T03:21:28;99170.05;;;4.27;98.13
50011;BME280;35899;50.352;19.390;2022-11-11T03:24:12;99170.05;;;4.27;98.13
50011;BME280;35899;50.352;19.390;2022-11-11T03:26:57;99166.48;;;4.33;98.51
50011;BME280;35899;50.352;19.390;2022-11-11T03:29:42;99174.06;;;4.37;98.63
50011;BME280;35899;50.352;19.390;2022-11-11T03:32:27;99166.61;;;4.44;99.19
50011;BME280;35899;50.352;19.390;2022-11-11T03:35:12;99165.98;;;4.51;99.92
50011;BME280;35899;50.352;19.390;2022-11-11T03:37:57;99164.05;;;4.61;100.00
50011;BME280;35899;50.352;19.390;2022-11-11T03:40:42;99159.99;;;4.68;100.00
50011;BME280;35899;50.352;19.390;2022-11-11T03:43:30;99159.82;;;4.75;100.00
50011;BME280;35899;50.352;19.390;2022-11-11T03:46:16;99167.37;;;4.81;100.00
50011;BME280;35899;50.352;19.390;2022-11-11T03:49:00;99171.05;;;4.87;100.00
50011;BME280;35899;50.352;19.390;2022-11-11T03:51:45;99170.91;;;4.93;100.00
50011;BME280;35899;50.352;19.390;2022-11-11T03:54:30;99168.41;;;4.90;99.46
50011;BME280;35899;50.352;19.390;2022-11-11T03:57:15;99175.02;;;4.84;98.68
50011;BME280;35899;50.352;19.390;2022-11-11T04:00:00;99163.58;;;4.78;98.36
50011;BME280;35899;50.352;19.390;2022-11-11T04:02:45;99167.98;;;4.74;98.40
50011;BME280;35899;50.352;19.390;2022-11-11T04:05:30;99165.97;;;4.69;98.28
50011;BME280;35899;50.352;19.390;2022-11-11T04:08:17;99164.41;;;4.63;98.07
50011;BME280;35899;50.352;19.390;2022-11-11T04:11:14;99160.71;;;4.57;98.10
50011;BME280;35899;50.352;19.390;2022-11-11T04:14:04;99160.78;;;4.54;98.53
50011;BME280;35899;50.352;19.390;2022-11-11T04:16:51;99157.80;;;4.53;99.24
50011;BME280;35899;50.352;19.390;2022-11-11T04:19:36;99156.47;;;4.55;99.77
50011;BME280;35899;50.352;19.390;2022-11-11T04:22:20;99161.20;;;4.55;100.00
50011;BME280;35899;50.352;19.390;2022-11-11T04:25:06;99159.05;;;4.55;100.00
50011;BME280;35899;50.352;19.390;2022-11-11T04:27:51;99162.48;;;4.55;100.00
50011;BME280;35899;50.352;19.390;2022-11-11T04:30:38;99166.34;;;4.55;100.00
50011;BME280;35899;50.352;19.390;2022-11-11T04:33:23;99170.75;;;4.50;99.72
50011;BME280;35899;50.352;19.390;2022-11-11T04:36:07;99174.99;;;4.35;98.25
50011;BME280;35899;50.352;19.390;2022-11-11T04:38:52;99182.16;;;4.22;98.01
50011;BME280;35899;50.352;19.390;2022-11-11T04:41:37;99192.14;;;4.16;98.43
50011;BME280;35899;50.352;19.390;2022-11-11T04:44:21;99184.58;;;4.10;98.45
50011;BME280;35899;50.352;19.390;2022-11-11T04:47:06;99183.36;;;4.07;98.73
50011;BME280;35899;50.352;19.390;2022-11-11T04:49:51;99176.55;;;4.06;99.02
50011;BME280;35899;50.352;19.390;2022-11-11T04:52:36;99183.81;;;4.06;99.43
50011;BME280;35899;50.352;19.390;2022-11-11T04:55:22;99187.54;;;4.11;99.81
50011;BME280;35899;50.352;19.390;2022-11-11T04:58:07;99190.05;;;4.14;99.86
50011;BME280;35899;50.352;19.390;2022-11-11T05:00:52;99201.07;;;4.19;100.00
50011;BME280;35899;50.352;19.390;2022-11-11T05:03:37;99201.40;;;4.23;100.00
50011;BME280;35899;50.352;19.390;2022-11-11T05:06:21;99207.34;;;4.25;100.00
50011;BME280;35899;50.352;19.390;2022-11-11T05:09:07;99214.58;;;4.27;100.00
50011;BME280;35899;50.352;19.390;2022-11-11T05:11:52;99224.80;;;4.30;100.00
50011;BME280;35899;50.352;19.390;2022-11-11T05:14:37;99217.59;;;4.27;99.35
50011;BME280;35899;50.352;19.390;2022-11-11T05:17:22;99220.58;;;4.26;99.37
50011;BME280;35899;50.352;19.390;2022-11-11T05:20:08;99221.00;;;4.27;99.49
50011;BME280;35899;50.352;19.390;2022-11-11T05:22:53;99215.44;;;4.26;99.43
50011;BME280;35899;50.352;19.390;2022-11-11T05:25:38;99225.27;;;4.28;99.49
50011;BME280;35899;50.352;19.390;2022-11-11T05:28:22;99224.88;;;4.26;99.18
50011;BME280;35899;50.352;19.390;2022-11-11T05:31:07;99226.20;;;4.24;99.17
50011;BME280;35899;50.352;19.390;2022-11-11T05:33:52;99226.32;;;4.20;99.09
50011;BME280;35899;50.352;19.390;2022-11-11T05:36:37;99220.83;;;4.17;99.21
50011;BME280;35899;50.352;19.390;2022-11-11T05:39:22;99229.40;;;4.16;99.16
50011;BME280;35899;50.352;19.390;2022-11-11T05:42:08;99231.16;;;4.14;99.28
50011;BME280;35899;50.352;19.390;2022-11-11T05:44:52;99235.05;;;4.13;99.35
50011;BME280;35899;50.352;19.390;2022-11-11T05:47:37;99242.73;;;4.14;99.53
50011;BME280;35899;50.352;19.390;2022-11-11T05:50:22;99230.72;;;4.15;99.53
50011;BME280;35899;50.352;19.390;2022-11-11T05:53:07;99239.30;;;4.15;99.53
50011;BME280;35899;50.352;19.390;2022-11-11T05:55:52;99238.81;;;4.17;99.70
50011;BME280;35899;50.352;19.390;2022-11-11T05:58:37;99240.01;;;4.20;99.92
50011;BME280;35899;50.352;19.390;2022-11-11T06:01:22;99243.83;;;4.22;99.83
50011;BME280;35899;50.352;19.390;2022-11-11T06:04:08;99251.06;;;4.24;99.73
50011;BME280;35899;50.352;19.390;2022-11-11T06:06:53;99257.05;;;4.24;99.62
50011;BME280;35899;50.352;19.390;2022-11-11T06:09:38;99257.46;;;4.25;99.45
50011;BME280;35899;50.352;19.390;2022-11-11T06:12:23;99250.62;;;4.24;99.30
50011;BME280;35899;50.352;19.390;2022-11-11T06:15:09;99250.55;;;4.27;99.41
50011;BME280;35899;50.352;19.390;2022-11-11T06:17:54;99247.48;;;4.31;99.56
50011;BME280;35899;50.352;19.390;2022-11-11T06:20:39;99250.73;;;4.38;99.86
50011;BME280;35899;50.352;19.390;2022-11-11T06:23:24;99257.81;;;4.47;100.00
50011;BME280;35899;50.352;19.390;2022-11-11T06:26:11;99250.72;;;4.57;100.00
50011;BME280;35899;50.352;19.390;2022-11-11T06:28:56;99242.30;;;4.68;100.00
50011;BME280;35899;50.352;19.390;2022-11-11T06:31:42;99242.90;;;4.78;100.00
50011;BME280;35899;50.352;19.390;2022-11-11T06:34:26;99243.50;;;4.88;100.00
50011;BME280;35899;50.352;19.390;2022-11-11T06:37:11;99246.72;;;4.96;100.00
50011;BME280;35899;50.352;19.390;2022-11-11T06:39:56;99250.50;;;4.99;100.00
50011;BME280;35899;50.352;19.390;2022-11-11T06:42:41;99246.61;;;5.01;99.68
50011;BME280;35899;50.352;19.390;2022-11-11T06:45:28;99247.03;;;5.00;99.33
50011;BME280;35899;50.352;19.390;2022-11-11T06:48:14;99254.05;;;4.95;98.67
50011;BME280;35899;50.352;19.390;2022-11-11T06:51:04;99263.64;;;4.88;97.99
50011;BME280;35899;50.352;19.390;2022-11-11T06:53:50;99260.91;;;4.78;97.57
50011;BME280;35899;50.352;19.390;2022-11-11T06:56:34;99254.22;;;4.71;97.46
50011;BME280;35899;50.352;19.390;2022-11-11T06:59:19;99260.66;;;4.71;97.85
50011;BME280;35899;50.352;19.390;2022-11-11T07:02:04;99260.39;;;4.82;98.24
50011;BME280;35899;50.352;19.390;2022-11-11T07:04:50;99269.91;;;4.95;98.29
50011;BME280;35899;50.352;19.390;2022-11-11T07:07:34;99272.28;;;5.02;98.27
50011;BME280;35899;50.352;19.390;2022-11-11T07:10:20;99261.05;;;5.06;97.97
50011;BME280;35899;50.352;19.390;2022-11-11T07:13:06;99246.23;;;5.15;98.33
50011;BME280;35899;50.352;19.390;2022-11-11T07:15:51;99237.95;;;5.20;98.46
50011;BME280;35899;50.352;19.390;2022-11-11T07:18:37;99240.21;;;5.31;98.78
50011;BME280;35899;50.352;19.390;2022-11-11T07:21:22;99246.36;;;5.41;99.09
50011;BME280;35899;50.352;19.390;2022-11-11T07:24:07;99253.83;;;5.51;99.21
50011;BME280;35899;50.352;19.390;2022-11-11T07:26:51;99245.84;;;5.60;99.30
50011;BME280;35899;50.352;19.390;2022-11-11T07:29:36;99240.40;;;5.69;99.27
50011;BME280;35899;50.352;19.390;2022-11-11T07:32:21;99238.01;;;5.78;99.12
50011;BME280;35899;50.352;19.390;2022-11-11T07:35:06;99233.88;;;5.87;99.26
50011;BME280;35899;50.352;19.390;2022-11-11T07:37:51;99229.73;;;5.98;99.30
50011;BME280;35899;50.352;19.390;2022-11-11T07:40:36;99219.11;;;6.07;99.47
50011;BME280;35899;50.352;19.390;2022-11-11T07:43:22;99213.58;;;6.19;99.64
50011;BME280;35899;50.352;19.390;2022-11-11T07:46:06;99218.33;;;6.32;99.80
50011;BME280;35899;50.352;19.390;2022-11-11T07:48:51;99213.12;;;6.46;99.87
50011;BME280;35899;50.352;19.390;2022-11-11T07:51:36;99204.38;;;6.64;100.00
50011;BME280;35899;50.352;19.390;2022-11-11T07:54:21;99208.87;;;6.84;100.00
50011;BME280;35899;50.352;19.390;2022-11-11T07:57:05;99216.70;;;7.06;100.00
50011;BME280;35899;50.352;19.390;2022-11-11T07:59:50;99214.66;;;7.28;100.00
50011;BME280;35899;50.352;19.390;2022-11-11T08:02:35;99211.79;;;7.47;100.00
50011;BME280;35899;50.352;19.390;2022-11-11T08:05:20;99211.11;;;7.66;100.00
50011;BME280;35899;50.352;19.390;2022-11-11T08:08:07;99205.67;;;7.83;100.00
50011;BME280;35899;50.352;19.390;2022-11-11T08:10:54;99204.19;;;8.00;100.00
50011;BME280;35899;50.352;19.390;2022-11-11T08:13:38;99202.61;;;8.18;100.00
50011;BME280;35899;50.352;19.390;2022-11-11T08:16:24;99203.08;;;8.28;99.99
50011;BME280;35899;50.352;19.390;2022-11-11T08:19:08;99205.87;;;8.33;99.50
50011;BME280;35899;50.352;19.390;2022-11-11T08:21:53;99211.39;;;8.36;99.01
50011;BME280;35899;50.352;19.390;2022-11-11T08:24:38;99209.12;;;8.38;98.67
50011;BME280;35899;50.352;19.390;2022-11-11T08:27:23;99213.23;;;8.44;98.50
50011;BME280;35899;50.352;19.390;2022-11-11T08:30:08;99212.14;;;8.50;98.44
50011;BME280;35899;50.352;19.390;2022-11-11T08:33:01;99215.70;;;8.57;98.44
50011;BME280;35899;50.352;19.390;2022-11-11T08:35:47;99218.49;;;8.63;97.98
50011;BME280;35899;50.352;19.390;2022-11-11T08:38:33;99223.16;;;8.65;97.54
50011;BME280;35899;50.352;19.390;2022-11-11T08:41:19;99226.31;;;8.72;97.71
50011;BME280;35899;50.352;19.390;2022-11-11T08:44:03;99235.70;;;8.85;97.83
50011;BME280;35899;50.352;19.390;2022-11-11T08:46:48;99234.23;;;8.89;97.32
50011;BME280;35899;50.352;19.390;2022-11-11T08:49:33;99243.80;;;8.97;97.23
50011;BME280;35899;50.352;19.390;2022-11-11T08:52:17;99232.66;;;9.06;96.94
50011;BME280;35899;50.352;19.390;2022-11-11T08:55:03;99233.44;;;9.18;96.68
50011;BME280;35899;50.352;19.390;2022-11-11T08:57:56;99238.19;;;9.37;95.95
50011;BME280;35899;50.352;19.390;2022-11-11T09:00:42;99231.84;;;9.64;95.56
50011;BME280;35899;50.352;19.390;2022-11-11T09:03:26;99221.94;;;9.91;95.83
50011;BME280;35899;50.352;19.390;2022-11-11T09:06:11;99215.98;;;10.25;95.44
50011;BME280;35899;50.352;19.390;2022-11-11T09:08:56;99220.55;;;10.65;94.24
50011;BME280;35899;50.352;19.390;2022-11-11T09:11:42;99236.58;;;11.00;93.45
50011;BME280;35899;50.352;19.390;2022-11-11T09:14:27;99239.13;;;11.26;92.55
50011;BME280;35899;50.352;19.390;2022-11-11T09:17:12;99239.23;;;11.40;92.31
50011;BME280;35899;50.352;19.390;2022-11-11T09:19:56;99225.53;;;11.54;90.74
50011;BME280;35899;50.352;19.390;2022-11-11T09:22:42;99226.63;;;11.66;90.13
50011;BME280;35899;50.352;19.390;2022-11-11T09:25:27;99246.75;;;12.03;90.26
50011;BME280;35899;50.352;19.390;2022-11-11T09:28:12;99237.45;;;12.45;89.29
50011;BME280;35899;50.352;19.390;2022-11-11T09:31:01;99229.66;;;12.68;88.84
50011;BME280;35899;50.352;19.390;2022-11-11T09:33:46;99232.89;;;12.71;87.39
50011;BME280;35899;50.352;19.390;2022-11-11T09:36:32;99243.31;;;12.64;86.59
50011;BME280;35899;50.352;19.390;2022-11-11T09:39:17;99240.57;;;12.51;85.99
50011;BME280;35899;50.352;19.390;2022-11-11T09:45:24;99247.44;;;12.45;85.69
50011;BME280;35899;50.352;19.390;2022-11-11T09:51:32;99254.34;;;12.54;85.14
50011;BME280;35899;50.352;19.390;2022-11-11T09:54:39;99245.97;;;12.56;84.21
50011;BME280;35899;50.352;19.390;2022-11-11T09:57:36;99244.81;;;12.68;84.50
50011;BME280;35899;50.352;19.390;2022-11-11T10:00:30;99243.34;;;12.79;83.99
50011;BME280;35899;50.352;19.390;2022-11-11T10:03:19;99249.03;;;12.93;83.87
50011;BME280;35899;50.352;19.390;2022-11-11T10:06:14;99250.06;;;13.56;81.97
50011;BME280;35899;50.352;19.390;2022-11-11T10:09:13;99241.31;;;13.99;81.21
50011;BME280;35899;50.352;19.390;2022-11-11T10:12:10;99249.55;;;14.74;80.43
50011;BME280;35899;50.352;19.390;2022-11-11T10:14:57;99239.04;;;15.58;79.32
50011;BME280;35899;50.352;19.390;2022-11-11T10:20:48;99233.06;;;16.60;74.38
50011;BME280;35899;50.352;19.390;2022-11-11T10:23:36;99228.33;;;16.95;73.87
50011;BME280;35899;50.352;19.390;2022-11-11T10:26:38;99226.43;;;17.65;73.10
50011;BME280;35899;50.352;19.390;2022-11-11T10:29:25;99220.61;;;18.22;68.97
50011;BME280;35899;50.352;19.390;2022-11-11T10:35:17;99219.78;;;18.21;69.20
50011;BME280;35899;50.352;19.390;2022-11-11T10:41:22;99226.78;;;18.64;65.68
50011;BME280;35899;50.352;19.390;2022-11-11T10:44:20;99216.37;;;19.66;66.43
50011;BME280;35899;50.352;19.390;2022-11-11T10:47:12;99212.11;;;20.00;62.22
50011;BME280;35899;50.352;19.390;2022-11-11T10:50:08;99209.03;;;20.40;58.93
50011;BME280;35899;50.352;19.390;2022-11-11T10:53:25;99216.11;;;19.85;59.28
50011;BME280;35899;50.352;19.390;2022-11-11T10:56:34;99204.98;;;18.73;59.88
50011;BME280;35899;50.352;19.390;2022-11-11T10:59:52;99204.16;;;18.14;60.91
50011;BME280;35899;50.352;19.390;2022-11-11T11:03:06;99203.77;;;17.64;62.32
50011;BME280;35899;50.352;19.390;2022-11-11T11:06:10;99209.13;;;17.06;61.77
50011;BME280;35899;50.352;19.390;2022-11-11T11:12:19;99194.95;;;16.61;62.81
50011;BME280;35899;50.352;19.390;2022-11-11T11:15:12;99183.25;;;16.43;61.89
50011;BME280;35899;50.352;19.390;2022-11-11T11:18:12;99186.09;;;16.16;62.57
50011;BME280;35899;50.352;19.390;2022-11-11T11:21:01;99197.10;;;16.02;63.87
50011;BME280;35899;50.352;19.390;2022-11-11T11:23:47;99207.89;;;15.92;64.28
50011;BME280;35899;50.352;19.390;2022-11-11T11:26:47;99210.23;;;15.71;63.97
50011;BME280;35899;50.352;19.390;2022-11-11T11:32:31;99202.81;;;15.34;64.20
50011;BME280;35899;50.352;19.390;2022-11-11T11:35:36;99198.84;;;15.28;64.38
50011;BME280;35899;50.352;19.390;2022-11-11T11:38:41;99199.66;;;15.29;64.64
50011;BME280;35899;50.352;19.390;2022-11-11T11:41:43;99193.64;;;15.47;64.86
50011;BME280;35899;50.352;19.390;2022-11-11T11:44:38;99198.34;;;15.73;64.34
50011;BME280;35899;50.352;19.390;2022-11-11T11:47:31;99197.28;;;15.88;64.55
50011;BME280;35899;50.352;19.390;2022-11-11T11:50:50;99194.42;;;15.91;63.74
50011;BME280;35899;50.352;19.390;2022-11-11T11:54:03;99198.73;;;15.92;64.43
50011;BME280;35899;50.352;19.390;2022-11-11T11:57:00;99190.94;;;15.85;64.84
50011;BME280;35899;50.352;19.390;2022-11-11T11:59:54;99186.49;;;15.61;64.47
50011;BME280;35899;50.352;19.390;2022-11-11T12:15:34;99185.53;;;13.80;64.77
50011;BME280;35899;50.352;19.390;2022-11-11T12:21:33;99190.98;;;13.26;66.04
50011;BME280;35899;50.352;19.390;2022-11-11T12:24:38;99172.09;;;13.08;66.55
50011;BME280;35899;50.352;19.390;2022-11-11T12:30:35;99170.50;;;12.91;67.78
50011;BME280;35899;50.352;19.390;2022-11-11T12:43:58;99175.70;;;12.70;69.37
50011;BME280;35899;50.352;19.390;2022-11-11T12:46:31;99178.20;;;12.64;69.68
50011;BME280;35899;50.352;19.390;2022-11-11T12:53:02;99166.33;;;12.44;69.83
50011;BME280;35899;50.352;19.390;2022-11-11T12:56:12;99173.83;;;12.35;70.14
50011;BME280;35899;50.352;19.390;2022-11-11T13:09:28;99170.34;;;12.20;71.07
50011;BME280;35899;50.352;19.390;2022-11-11T13:15:14;99156.84;;;12.20;71.59
50011;BME280;35899;50.352;19.390;2022-11-11T13:18:09;99166.70;;;12.15;71.56
50011;BME280;35899;50.352;19.390;2022-11-11T13:21:53;99162.97;;;12.12;71.97
50011;BME280;35899;50.352;19.390;2022-11-11T13:24:04;99158.78;;;12.09;71.94
50011;BME280;35899;50.352;19.390;2022-11-11T13:26:59;99155.05;;;12.06;71.99
50011;BME280;35899;50.352;19.390;2022-11-11T13:31:11;99152.83;;;12.07;72.24
50011;BME280;35899;50.352;19.390;2022-11-11T13:33:20;99152.28;;;12.09;72.42
50011;BME280;35899;50.352;19.390;2022-11-11T13:36:11;99148.17;;;12.05;72.37
50011;BME280;35899;50.352;19.390;2022-11-11T13:39:03;99146.95;;;12.04;72.58
50011;BME280;35899;50.352;19.390;2022-11-11T13:41:48;99152.63;;;12.03;72.80
50011;BME280;35899;50.352;19.390;2022-11-11T13:44:55;99159.14;;;12.03;72.96
50011;BME280;35899;50.352;19.390;2022-11-11T13:47:44;99157.17;;;12.00;72.94
50011;BME280;35899;50.352;19.390;2022-11-11T13:50:38;99157.48;;;11.93;72.90
50011;BME280;35899;50.352;19.390;2022-11-11T13:53:31;99153.83;;;11.89;72.88
50011;BME280;35899;50.352;19.390;2022-11-11T13:56:38;99153.42;;;11.81;72.71
50011;BME280;35899;50.352;19.390;2022-11-11T13:59:36;99146.33;;;11.76;73.10
50011;BME280;35899;50.352;19.390;2022-11-11T14:07:58;99151.84;;;11.46;73.82
50011;BME280;35899;50.352;19.390;2022-11-11T14:10:49;99151.03;;;11.37;74.04
50011;BME280;35899;50.352;19.390;2022-11-11T14:13:37;99154.48;;;11.29;74.19
50011;BME280;35899;50.352;19.390;2022-11-11T14:19:31;99154.47;;;11.13;74.68
50011;BME280;35899;50.352;19.390;2022-11-11T14:22:31;99162.38;;;11.03;75.04
50011;BME280;35899;50.352;19.390;2022-11-11T14:25:27;99159.86;;;10.92;75.20
50011;BME280;35899;50.352;19.390;2022-11-11T14:28:38;99143.56;;;10.73;75.43
50011;BME280;35899;50.352;19.390;2022-11-11T14:31:29;99171.59;;;10.75;75.78
50011;BME280;35899;50.352;19.390;2022-11-11T14:34:27;99173.81;;;10.65;76.04
50011;BME280;35899;50.352;19.390;2022-11-11T14:37:36;99172.14;;;10.55;76.36
50011;BME280;35899;50.352;19.390;2022-11-11T14:40:37;99167.05;;;10.45;76.57
50011;BME280;35899;50.352;19.390;2022-11-11T14:43:37;99163.74;;;10.33;76.95
50011;BME280;35899;50.352;19.390;2022-11-11T14:46:25;99169.75;;;10.25;77.19
50011;BME280;35899;50.352;19.390;2022-11-11T14:49:44;99174.45;;;10.16;77.51
50011;BME280;35899;50.352;19.390;2022-11-11T14:52:40;99163.61;;;10.08;77.78
50011;BME280;35899;50.352;19.390;2022-11-11T14:55:28;99167.05;;;10.00;78.06
50011;BME280;35899;50.352;19.390;2022-11-11T14:58:16;99155.87;;;9.89;78.20
50011;BME280;35899;50.352;19.390;2022-11-11T15:01:14;99156.38;;;9.78;78.37
50011;BME280;35899;50.352;19.390;2022-11-11T15:04:03;99155.14;;;9.68;78.71
50011;BME280;35899;50.352;19.390;2022-11-11T15:06:57;99154.80;;;9.57;78.91
50011;BME280;35899;50.352;19.390;2022-11-11T15:10:11;99151.86;;;9.46;79.13
50011;BME280;35899;50.352;19.390;2022-11-11T15:31:59;99165.30;;;8.76;81.06
50011;BME280;35899;50.352;19.390;2022-11-11T15:37:52;99172.55;;;8.58;81.62
50011;BME280;35899;50.352;19.390;2022-11-11T15:40:47;99173.79;;;8.49;81.84
50011;BME280;35899;50.352;19.390;2022-11-11T15:43:36;99173.65;;;8.42;81.99
50011;BME280;35899;50.352;19.390;2022-11-11T15:46:27;99177.81;;;8.34;82.25
50011;BME280;35899;50.352;19.390;2022-11-11T15:49:36;99177.20;;;8.28;82.59
50011;BME280;35899;50.352;19.390;2022-11-11T15:52:26;99184.34;;;8.22;82.90
50011;BME280;35899;50.352;19.390;2022-11-11T15:55:25;99179.33;;;8.18;83.38
50011;BME280;35899;50.352;19.390;2022-11-11T15:58:10;99175.13;;;8.15;83.85
50011;BME280;35899;50.352;19.390;2022-11-11T16:00:59;99181.71;;;8.12;84.10
50011;BME280;35899;50.352;19.390;2022-11-11T16:03:46;99183.15;;;8.09;84.33
50011;BME280;35899;50.352;19.390;2022-11-11T16:06:35;99182.34;;;8.07;84.43
50011;BME280;35899;50.352;19.390;2022-11-11T16:09:23;99178.60;;;8.04;84.65
50011;BME280;35899;50.352;19.390;2022-11-11T16:12:10;99177.41;;;8.01;84.90
50011;BME280;35899;50.352;19.390;2022-11-11T16:15:00;99176.69;;;7.97;85.29
50011;BME280;35899;50.352;19.390;2022-11-11T16:17:47;99177.16;;;7.97;85.42
50011;BME280;35899;50.352;19.390;2022-11-11T16:20:44;99171.52;;;7.97;85.94
50011;BME280;35899;50.352;19.390;2022-11-11T16:23:36;99171.88;;;8.00;86.06
50011;BME280;35899;50.352;19.390;2022-11-11T16:26:23;99172.81;;;7.97;86.11
50011;BME280;35899;50.352;19.390;2022-11-11T16:29:12;99173.79;;;7.95;86.20
50011;BME280;35899;50.352;19.390;2022-11-11T16:31:58;99172.95;;;7.94;86.31
50011;BME280;35899;50.352;19.390;2022-11-11T16:34:43;99177.34;;;7.92;86.45